sensor_id;sensor_type;location;lat;lon;timestamp;temperature;humidity
782;DHT22;374;52.568;13.402;2022-08-19T00:00:14;22.30;99.90
782;DHT22;374;52.568;13.402;2022-08-19T00:02:41;22.30;99.90
782;DHT22;374;52.568;13.402;2022-08-19T00:05:08;22.30;99.90
782;DHT22;374;52.568;13.402;2022-08-19T00:07:34;22.30;99.90
782;DHT22;374;52.568;13.402;2022-08-19T00:10:00;22.30;99.90
782;DHT22;374;52.568;13.402;2022-08-19T00:12:26;22.30;99.90
782;DHT22;374;52.568;13.402;2022-08-19T00:14:52;22.30;99.90
782;DHT22;374;52.568;13.402;2022-08-19T00:17:20;22.30;99.90
782;DHT22;374;52.568;13.402;2022-08-19T00:19:46;22.30;99.90
782;DHT22;374;52.568;13.402;2022-08-19T00:22:11;22.40;99.90
782;DHT22;374;52.568;13.402;2022-08-19T00:24:37;22.40;99.90
782;DHT22;374;52.568;13.402;2022-08-19T00:27:04;22.40;99.90
782;DHT22;374;52.568;13.402;2022-08-19T00:29:29;22.30;99.90
782;DHT22;374;52.568;13.402;2022-08-19T00:31:56;22.40;99.90
782;DHT22;374;52.568;13.402;2022-08-19T00:34:24;22.40;99.90
782;DHT22;374;52.568;13.402;2022-08-19T00:36:51;22.40;99.90
782;DHT22;374;52.568;13.402;2022-08-19T00:39:17;22.30;99.90
782;DHT22;374;52.568;13.402;2022-08-19T00:41:43;22.40;99.90
782;DHT22;374;52.568;13.402;2022-08-19T00:44:28;22.40;99.90
782;DHT22;374;52.568;13.402;2022-08-19T00:46:57;22.40;99.90
782;DHT22;374;52.568;13.402;2022-08-19T00:52:21;22.40;99.90
782;DHT22;374;52.568;13.402;2022-08-19T00:54:48;22.30;99.90
782;DHT22;374;52.568;13.402;2022-08-19T00:57:16;22.30;99.90
782;DHT22;374;52.568;13.402;2022-08-19T00:59:44;22.30;99.90
782;DHT22;374;52.568;13.402;2022-08-19T01:02:11;22.30;99.90
782;DHT22;374;52.568;13.402;2022-08-19T01:04:37;22.30;99.90
782;DHT22;374;52.568;13.402;2022-08-19T01:07:03;22.20;99.90
782;DHT22;374;52.568;13.402;2022-08-19T01:09:31;22.20;99.90
782;DHT22;374;52.568;13.402;2022-08-19T01:11:57;22.30;99.90
782;DHT22;374;52.568;13.402;2022-08-19T01:14:23;22.30;99.90
782;DHT22;374;52.568;13.402;2022-08-19T01:16:50;22.30;99.90
782;DHT22;374;52.568;13.402;2022-08-19T01:19:27;22.30;99.90
782;DHT22;374;52.568;13.402;2022-08-19T01:22:06;22.30;99.90
782;DHT22;374;52.568;13.402;2022-08-19T01:24:33;22.20;99.90
782;DHT22;374;52.568;13.402;2022-08-19T01:26:59;22.20;99.90
782;DHT22;374;52.568;13.402;2022-08-19T01:29:25;22.20;99.90
782;DHT22;374;52.568;13.402;2022-08-19T01:31:50;22.20;99.90
782;DHT22;374;52.568;13.402;2022-08-19T01:34:18;22.20;99.90
782;DHT22;374;52.568;13.402;2022-08-19T01:36:46;22.20;99.90
782;DHT22;374;52.568;13.402;2022-08-19T01:39:23;22.20;99.90
782;DHT22;374;52.568;13.402;2022-08-19T01:41:50;22.20;99.90
782;DHT22;374;52.568;13.402;2022-08-19T01:44:16;22.10;99.90
782;DHT22;374;52.568;13.402;2022-08-19T01:46:43;22.10;99.90
782;DHT22;374;52.568;13.402;2022-08-19T01:49:09;22.10;99.90
782;DHT22;374;52.568;13.402;2022-08-19T01:51:35;22.10;99.90
782;DHT22;374;52.568;13.402;2022-08-19T01:54:01;22.10;99.90
782;DHT22;374;52.568;13.402;2022-08-19T01:56:26;22.10;99.90
782;DHT22;374;52.568;13.402;2022-08-19T01:59:02;22.00;99.90
782;DHT22;374;52.568;13.402;2022-08-19T02:01:29;22.00;99.90
782;DHT22;374;52.568;13.402;2022-08-19T02:03:57;22.00;99.90
782;DHT22;374;52.568;13.402;2022-08-19T02:06:23;22.00;99.90
782;DHT22;374;52.568;13.402;2022-08-19T02:08:49;21.90;99.90
782;DHT22;374;52.568;13.402;2022-08-19T02:11:26;21.80;99.90
782;DHT22;374;52.568;13.402;2022-08-19T02:13:53;21.90;99.90
782;DHT22;374;52.568;13.402;2022-08-19T02:16:19;21.70;99.90
782;DHT22;374;52.568;13.402;2022-08-19T02:18:46;21.80;99.90
782;DHT22;374;52.568;13.402;2022-08-19T02:21:15;21.70;99.90
782;DHT22;374;52.568;13.402;2022-08-19T02:23:41;21.60;99.90
782;DHT22;374;52.568;13.402;2022-08-19T02:26:07;21.80;99.90
782;DHT22;374;52.568;13.402;2022-08-19T02:28:32;21.60;99.90
782;DHT22;374;52.568;13.402;2022-08-19T02:30:59;21.60;99.90
782;DHT22;374;52.568;13.402;2022-08-19T02:33:26;21.50;99.90
782;DHT22;374;52.568;13.402;2022-08-19T02:35:51;21.70;99.90
782;DHT22;374;52.568;13.402;2022-08-19T02:38:17;21.40;99.90
782;DHT22;374;52.568;13.402;2022-08-19T02:40:57;21.60;99.90
782;DHT22;374;52.568;13.402;2022-08-19T02:43:24;21.40;99.90
782;DHT22;374;52.568;13.402;2022-08-19T02:45:50;21.30;99.90
782;DHT22;374;52.568;13.402;2022-08-19T02:48:17;21.30;99.90
782;DHT22;374;52.568;13.402;2022-08-19T02:50:44;21.30;99.90
782;DHT22;374;52.568;13.402;2022-08-19T02:53:10;21.40;99.90
782;DHT22;374;52.568;13.402;2022-08-19T02:55:36;21.10;99.90
782;DHT22;374;52.568;13.402;2022-08-19T02:58:07;21.10;99.90
782;DHT22;374;52.568;13.402;2022-08-19T03:00:32;21.20;99.90
782;DHT22;374;52.568;13.402;2022-08-19T03:02:57;21.20;99.90
782;DHT22;374;52.568;13.402;2022-08-19T03:05:24;21.20;99.90
782;DHT22;374;52.568;13.402;2022-08-19T03:07:50;21.10;99.90
782;DHT22;374;52.568;13.402;2022-08-19T03:10:15;21.10;99.90
782;DHT22;374;52.568;13.402;2022-08-19T03:12:41;21.20;99.90
782;DHT22;374;52.568;13.402;2022-08-19T03:15:07;21.00;99.90
782;DHT22;374;52.568;13.402;2022-08-19T03:17:34;20.90;99.90
782;DHT22;374;52.568;13.402;2022-08-19T03:20:00;21.20;99.90
782;DHT22;374;52.568;13.402;2022-08-19T03:22:26;20.90;99.90
782;DHT22;374;52.568;13.402;2022-08-19T03:24:51;20.90;99.90
782;DHT22;374;52.568;13.402;2022-08-19T03:27:17;20.90;99.90
782;DHT22;374;52.568;13.402;2022-08-19T03:29:43;21.10;99.90
782;DHT22;374;52.568;13.402;2022-08-19T03:38:56;21.00;99.90
782;DHT22;374;52.568;13.402;2022-08-19T03:41:35;20.90;99.90
782;DHT22;374;52.568;13.402;2022-08-19T03:44:02;20.80;99.90
782;DHT22;374;52.568;13.402;2022-08-19T03:46:30;21.10;99.90
782;DHT22;374;52.568;13.402;2022-08-19T03:48:58;21.10;99.90
782;DHT22;374;52.568;13.402;2022-08-19T03:51:29;21.00;99.90
782;DHT22;374;52.568;13.402;2022-08-19T03:53:57;21.00;99.90
782;DHT22;374;52.568;13.402;2022-08-19T03:56:23;21.00;99.90
782;DHT22;374;52.568;13.402;2022-08-19T03:58:51;20.90;99.90
782;DHT22;374;52.568;13.402;2022-08-19T04:01:21;20.80;99.90
782;DHT22;374;52.568;13.402;2022-08-19T04:03:47;21.00;99.90
782;DHT22;374;52.568;13.402;2022-08-19T04:06:19;20.90;99.90
782;DHT22;374;52.568;13.402;2022-08-19T04:08:47;21.00;99.90
782;DHT22;374;52.568;13.402;2022-08-19T04:11:15;20.80;99.90
782;DHT22;374;52.568;13.402;2022-08-19T04:13:41;20.70;99.90
782;DHT22;374;52.568;13.402;2022-08-19T04:16:11;20.70;99.90
782;DHT22;374;52.568;13.402;2022-08-19T04:18:38;21.00;99.90
782;DHT22;374;52.568;13.402;2022-08-19T04:21:05;21.00;99.90
782;DHT22;374;52.568;13.402;2022-08-19T04:23:31;21.00;99.90
782;DHT22;374;52.568;13.402;2022-08-19T04:25:57;20.70;99.90
782;DHT22;374;52.568;13.402;2022-08-19T04:28:23;20.80;99.90
782;DHT22;374;52.568;13.402;2022-08-19T04:30:50;21.00;99.90
782;DHT22;374;52.568;13.402;2022-08-19T04:33:19;21.10;99.90
782;DHT22;374;52.568;13.402;2022-08-19T04:35:48;21.10;99.90
782;DHT22;374;52.568;13.402;2022-08-19T04:38:15;21.00;99.90
782;DHT22;374;52.568;13.402;2022-08-19T04:40:43;21.10;99.90
782;DHT22;374;52.568;13.402;2022-08-19T04:43:28;21.00;99.90
782;DHT22;374;52.568;13.402;2022-08-19T04:45:54;20.80;99.90
782;DHT22;374;52.568;13.402;2022-08-19T04:48:20;21.10;99.90
782;DHT22;374;52.568;13.402;2022-08-19T04:50:55;21.10;99.90
782;DHT22;374;52.568;13.402;2022-08-19T04:53:31;20.90;99.90
782;DHT22;374;52.568;13.402;2022-08-19T04:55:57;21.10;99.90
782;DHT22;374;52.568;13.402;2022-08-19T04:58:25;21.10;99.90
782;DHT22;374;52.568;13.402;2022-08-19T05:00:52;21.00;99.90
782;DHT22;374;52.568;13.402;2022-08-19T05:03:18;20.90;99.90
782;DHT22;374;52.568;13.402;2022-08-19T05:05:45;21.20;99.90
782;DHT22;374;52.568;13.402;2022-08-19T05:08:14;21.20;99.90
782;DHT22;374;52.568;13.402;2022-08-19T05:10:43;21.20;99.90
782;DHT22;374;52.568;13.402;2022-08-19T05:13:09;20.90;99.90
782;DHT22;374;52.568;13.402;2022-08-19T05:15:36;21.00;99.90
782;DHT22;374;52.568;13.402;2022-08-19T05:18:01;20.90;99.90
782;DHT22;374;52.568;13.402;2022-08-19T05:20:45;21.20;99.90
782;DHT22;374;52.568;13.402;2022-08-19T05:23:29;21.10;99.90
782;DHT22;374;52.568;13.402;2022-08-19T05:25:55;21.10;99.90
782;DHT22;374;52.568;13.402;2022-08-19T05:28:21;21.30;99.90
782;DHT22;374;52.568;13.402;2022-08-19T05:30:46;21.00;99.90
782;DHT22;374;52.568;13.402;2022-08-19T05:33:13;20.90;99.90
782;DHT22;374;52.568;13.402;2022-08-19T05:35:39;21.20;99.90
782;DHT22;374;52.568;13.402;2022-08-19T05:38:07;21.00;99.90
782;DHT22;374;52.568;13.402;2022-08-19T05:40:35;21.30;99.90
782;DHT22;374;52.568;13.402;2022-08-19T05:43:02;21.30;99.90
782;DHT22;374;52.568;13.402;2022-08-19T05:45:28;21.10;99.90
782;DHT22;374;52.568;13.402;2022-08-19T05:47:54;21.00;99.90
782;DHT22;374;52.568;13.402;2022-08-19T05:50:20;21.10;99.90
782;DHT22;374;52.568;13.402;2022-08-19T05:52:45;21.20;99.90
782;DHT22;374;52.568;13.402;2022-08-19T05:55:11;21.10;99.90
782;DHT22;374;52.568;13.402;2022-08-19T05:57:38;21.40;99.90
782;DHT22;374;52.568;13.402;2022-08-19T06:00:05;21.40;99.90
782;DHT22;374;52.568;13.402;2022-08-19T06:02:36;21.40;99.90
782;DHT22;374;52.568;13.402;2022-08-19T06:05:03;21.50;99.90
782;DHT22;374;52.568;13.402;2022-08-19T06:07:35;21.40;99.90
782;DHT22;374;52.568;13.402;2022-08-19T06:10:00;21.60;99.90
782;DHT22;374;52.568;13.402;2022-08-19T06:12:27;21.70;99.90
782;DHT22;374;52.568;13.402;2022-08-19T06:14:54;21.70;99.90
782;DHT22;374;52.568;13.402;2022-08-19T06:17:20;21.50;99.90
782;DHT22;374;52.568;13.402;2022-08-19T06:19:47;21.60;99.90
782;DHT22;374;52.568;13.402;2022-08-19T06:22:15;21.70;99.90
782;DHT22;374;52.568;13.402;2022-08-19T06:24:40;21.80;99.90
782;DHT22;374;52.568;13.402;2022-08-19T06:27:06;21.70;99.90
782;DHT22;374;52.568;13.402;2022-08-19T06:29:32;21.80;99.90
782;DHT22;374;52.568;13.402;2022-08-19T06:32:00;21.60;99.90
782;DHT22;374;52.568;13.402;2022-08-19T06:34:27;21.60;99.90
782;DHT22;374;52.568;13.402;2022-08-19T06:36:54;21.80;99.90
782;DHT22;374;52.568;13.402;2022-08-19T06:39:23;21.80;99.90
782;DHT22;374;52.568;13.402;2022-08-19T06:41:52;21.70;99.90
782;DHT22;374;52.568;13.402;2022-08-19T06:44:20;21.60;99.90
782;DHT22;374;52.568;13.402;2022-08-19T06:46:46;21.60;99.90
782;DHT22;374;52.568;13.402;2022-08-19T06:49:12;21.70;99.90
782;DHT22;374;52.568;13.402;2022-08-19T06:51:45;21.80;99.90
782;DHT22;374;52.568;13.402;2022-08-19T06:54:16;22.00;99.90
782;DHT22;374;52.568;13.402;2022-08-19T06:56:42;22.10;99.90
782;DHT22;374;52.568;13.402;2022-08-19T06:59:11;22.10;99.90
782;DHT22;374;52.568;13.402;2022-08-19T07:01:38;21.90;99.90
782;DHT22;374;52.568;13.402;2022-08-19T07:04:06;22.00;99.90
782;DHT22;374;52.568;13.402;2022-08-19T07:06:33;22.00;99.90
782;DHT22;374;52.568;13.402;2022-08-19T07:08:59;22.10;99.90
782;DHT22;374;52.568;13.402;2022-08-19T07:11:25;22.10;99.90
782;DHT22;374;52.568;13.402;2022-08-19T07:13:50;22.00;99.90
782;DHT22;374;52.568;13.402;2022-08-19T07:16:18;22.20;99.90
782;DHT22;374;52.568;13.402;2022-08-19T07:18:46;22.20;99.90
782;DHT22;374;52.568;13.402;2022-08-19T07:21:15;22.20;99.90
782;DHT22;374;52.568;13.402;2022-08-19T07:23:42;22.20;99.90
782;DHT22;374;52.568;13.402;2022-08-19T07:26:11;22.20;99.90
782;DHT22;374;52.568;13.402;2022-08-19T07:28:37;22.20;99.90
782;DHT22;374;52.568;13.402;2022-08-19T07:31:06;22.20;99.90
782;DHT22;374;52.568;13.402;2022-08-19T07:33:33;22.20;99.90
782;DHT22;374;52.568;13.402;2022-08-19T07:36:04;22.30;99.90
782;DHT22;374;52.568;13.402;2022-08-19T07:38:31;22.30;99.90
782;DHT22;374;52.568;13.402;2022-08-19T07:40:57;22.30;99.90
782;DHT22;374;52.568;13.402;2022-08-19T07:43:23;22.30;99.90
782;DHT22;374;52.568;13.402;2022-08-19T07:45:53;22.30;99.90
782;DHT22;374;52.568;13.402;2022-08-19T07:48:23;22.30;99.90
782;DHT22;374;52.568;13.402;2022-08-19T07:50:52;22.30;99.90
782;DHT22;374;52.568;13.402;2022-08-19T07:53:18;22.30;99.90
782;DHT22;374;52.568;13.402;2022-08-19T07:55:44;22.40;99.90
782;DHT22;374;52.568;13.402;2022-08-19T07:58:13;22.50;99.90
782;DHT22;374;52.568;13.402;2022-08-19T08:00:39;22.40;99.90
782;DHT22;374;52.568;13.402;2022-08-19T08:03:05;22.50;99.90
782;DHT22;374;52.568;13.402;2022-08-19T08:05:36;22.50;99.90
782;DHT22;374;52.568;13.402;2022-08-19T08:08:20;22.50;99.90
782;DHT22;374;52.568;13.402;2022-08-19T08:14:28;22.50;99.90
782;DHT22;374;52.568;13.402;2022-08-19T08:16:54;22.50;99.90
782;DHT22;374;52.568;13.402;2022-08-19T08:19:22;22.50;99.90
782;DHT22;374;52.568;13.402;2022-08-19T08:21:48;22.50;99.90
782;DHT22;374;52.568;13.402;2022-08-19T08:24:15;22.50;99.90
782;DHT22;374;52.568;13.402;2022-08-19T08:27:21;22.60;99.90
782;DHT22;374;52.568;13.402;2022-08-19T08:30:18;22.60;99.90
782;DHT22;374;52.568;13.402;2022-08-19T08:32:51;22.60;99.90
782;DHT22;374;52.568;13.402;2022-08-19T08:35:19;22.60;99.90
782;DHT22;374;52.568;13.402;2022-08-19T08:37:46;22.60;99.90
782;DHT22;374;52.568;13.402;2022-08-19T08:40:29;22.70;99.90
782;DHT22;374;52.568;13.402;2022-08-19T08:45:57;22.70;99.90
782;DHT22;374;52.568;13.402;2022-08-19T08:52:18;22.70;99.90
782;DHT22;374;52.568;13.402;2022-08-19T08:55:25;22.70;99.90
782;DHT22;374;52.568;13.402;2022-08-19T08:58:01;22.80;99.90
782;DHT22;374;52.568;13.402;2022-08-19T09:00:31;22.70;99.90
782;DHT22;374;52.568;13.402;2022-08-19T09:17:00;22.80;99.90
782;DHT22;374;52.568;13.402;2022-08-19T11:30:50;24.10;99.90
782;DHT22;374;52.568;13.402;2022-08-19T11:33:16;24.10;99.90
782;DHT22;374;52.568;13.402;2022-08-19T11:35:41;24.10;99.90
782;DHT22;374;52.568;13.402;2022-08-19T11:38:07;24.10;99.90
782;DHT22;374;52.568;13.402;2022-08-19T11:40:32;24.10;99.90
782;DHT22;374;52.568;13.402;2022-08-19T11:42:58;24.10;99.90
782;DHT22;374;52.568;13.402;2022-08-19T11:52:17;24.00;99.90
782;DHT22;374;52.568;13.402;2022-08-19T11:58:28;24.00;99.90
782;DHT22;374;52.568;13.402;2022-08-19T12:01:54;24.00;99.90
782;DHT22;374;52.568;13.402;2022-08-19T12:04:28;24.00;99.90
782;DHT22;374;52.568;13.402;2022-08-19T12:06:54;24.10;99.90
782;DHT22;374;52.568;13.402;2022-08-19T12:09:20;24.10;99.90
782;DHT22;374;52.568;13.402;2022-08-19T12:11:47;24.20;99.90
782;DHT22;374;52.568;13.402;2022-08-19T12:24:29;24.50;99.90
782;DHT22;374;52.568;13.402;2022-08-19T12:27:21;24.50;99.90
782;DHT22;374;52.568;13.402;2022-08-19T12:54:32;24.70;99.90
782;DHT22;374;52.568;13.402;2022-08-19T12:56:58;24.70;99.90
782;DHT22;374;52.568;13.402;2022-08-19T12:59:24;24.60;99.90
782;DHT22;374;52.568;13.402;2022-08-19T13:01:50;24.70;99.90
782;DHT22;374;52.568;13.402;2022-08-19T13:04:16;24.70;99.90
782;DHT22;374;52.568;13.402;2022-08-19T13:06:41;24.70;99.90
782;DHT22;374;52.568;13.402;2022-08-19T13:09:08;24.70;99.90
782;DHT22;374;52.568;13.402;2022-08-19T13:11:33;24.70;99.90
782;DHT22;374;52.568;13.402;2022-08-19T13:21:18;24.80;99.90
782;DHT22;374;52.568;13.402;2022-08-19T13:31:32;24.80;99.90
782;DHT22;374;52.568;13.402;2022-08-19T13:34:19;24.80;99.90
782;DHT22;374;52.568;13.402;2022-08-19T13:36:52;24.80;99.90
782;DHT22;374;52.568;13.402;2022-08-19T13:39:18;24.80;99.90
782;DHT22;374;52.568;13.402;2022-08-19T13:41:45;24.80;99.90
782;DHT22;374;52.568;13.402;2022-08-19T13:44:14;24.80;99.90
782;DHT22;374;52.568;13.402;2022-08-19T13:46:39;24.80;99.90
782;DHT22;374;52.568;13.402;2022-08-19T13:49:05;24.80;99.90
782;DHT22;374;52.568;13.402;2022-08-19T14:57:19;24.70;99.90
782;DHT22;374;52.568;13.402;2022-08-19T15:31:03;24.50;99.90
782;DHT22;374;52.568;13.402;2022-08-19T15:37:10;24.50;99.90
782;DHT22;374;52.568;13.402;2022-08-19T15:40:01;24.50;99.90
782;DHT22;374;52.568;13.402;2022-08-19T15:42:27;24.50;99.90
782;DHT22;374;52.568;13.402;2022-08-19T15:44:55;24.50;99.90
782;DHT22;374;52.568;13.402;2022-08-19T15:47:50;24.50;99.90
782;DHT22;374;52.568;13.402;2022-08-19T15:50:44;24.50;99.90
782;DHT22;374;52.568;13.402;2022-08-19T15:56:29;24.40;99.90
782;DHT22;374;52.568;13.402;2022-08-19T15:59:38;24.40;99.90
782;DHT22;374;52.568;13.402;2022-08-19T16:17:13;24.30;99.90
782;DHT22;374;52.568;13.402;2022-08-19T16:27:02;24.30;99.90
782;DHT22;374;52.568;13.402;2022-08-19T16:36:56;24.30;99.90
782;DHT22;374;52.568;13.402;2022-08-19T16:43:22;24.30;99.90
782;DHT22;374;52.568;13.402;2022-08-19T16:45:49;24.20;99.90
782;DHT22;374;52.568;13.402;2022-08-19T17:33:59;24.00;99.90
782;DHT22;374;52.568;13.402;2022-08-19T18:06:09;23.60;99.90
782;DHT22;374;52.568;13.402;2022-08-19T18:08:36;23.60;99.90
782;DHT22;374;52.568;13.402;2022-08-19T18:11:08;23.60;99.90
782;DHT22;374;52.568;13.402;2022-08-19T18:13:34;23.50;99.90
782;DHT22;374;52.568;13.402;2022-08-19T18:16:01;23.50;99.90
782;DHT22;374;52.568;13.402;2022-08-19T18:18:27;23.50;99.90
782;DHT22;374;52.568;13.402;2022-08-19T18:20:54;23.50;99.90
782;DHT22;374;52.568;13.402;2022-08-19T18:23:20;23.50;99.90
782;DHT22;374;52.568;13.402;2022-08-19T18:25:45;23.40;99.90
782;DHT22;374;52.568;13.402;2022-08-19T18:28:11;23.40;99.90
782;DHT22;374;52.568;13.402;2022-08-19T18:30:37;23.40;99.90
782;DHT22;374;52.568;13.402;2022-08-19T18:33:05;23.40;99.90
782;DHT22;374;52.568;13.402;2022-08-19T18:35:39;23.40;99.90
782;DHT22;374;52.568;13.402;2022-08-19T18:38:05;23.40;99.90
782;DHT22;374;52.568;13.402;2022-08-19T18:40:51;23.30;99.90
782;DHT22;374;52.568;13.402;2022-08-19T18:43:35;23.30;99.90
782;DHT22;374;52.568;13.402;2022-08-19T18:46:18;23.40;99.90
782;DHT22;374;52.568;13.402;2022-08-19T18:49:03;23.30;99.90
782;DHT22;374;52.568;13.402;2022-08-19T18:51:29;23.30;99.90
782;DHT22;374;52.568;13.402;2022-08-19T18:53:55;23.30;99.90
782;DHT22;374;52.568;13.402;2022-08-19T18:56:23;23.30;99.90
782;DHT22;374;52.568;13.402;2022-08-19T18:58:53;23.30;99.90
782;DHT22;374;52.568;13.402;2022-08-19T19:01:29;23.30;99.90
782;DHT22;374;52.568;13.402;2022-08-19T19:04:04;23.20;99.90
782;DHT22;374;52.568;13.402;2022-08-19T19:06:33;23.30;99.90
782;DHT22;374;52.568;13.402;2022-08-19T19:09:03;23.20;99.90
782;DHT22;374;52.568;13.402;2022-08-19T19:11:36;23.30;99.90
782;DHT22;374;52.568;13.402;2022-08-19T19:14:03;23.20;99.90
782;DHT22;374;52.568;13.402;2022-08-19T19:16:30;23.20;99.90
782;DHT22;374;52.568;13.402;2022-08-19T19:18:56;23.20;99.90
782;DHT22;374;52.568;13.402;2022-08-19T19:21:24;23.20;99.90
782;DHT22;374;52.568;13.402;2022-08-19T19:23:51;23.20;99.90
782;DHT22;374;52.568;13.402;2022-08-19T19:26:16;23.20;99.90
782;DHT22;374;52.568;13.402;2022-08-19T19:28:44;23.20;99.90
782;DHT22;374;52.568;13.402;2022-08-19T19:31:14;23.20;99.90
782;DHT22;374;52.568;13.402;2022-08-19T19:33:43;23.20;99.90
782;DHT22;374;52.568;13.402;2022-08-19T19:36:09;23.20;99.90
782;DHT22;374;52.568;13.402;2022-08-19T19:38:35;23.20;99.90
782;DHT22;374;52.568;13.402;2022-08-19T19:41:00;23.20;99.90
782;DHT22;374;52.568;13.402;2022-08-19T19:43:26;23.20;99.90
782;DHT22;374;52.568;13.402;2022-08-19T19:45:54;23.10;99.90
782;DHT22;374;52.568;13.402;2022-08-19T19:48:20;23.10;99.90
782;DHT22;374;52.568;13.402;2022-08-19T19:50:46;23.10;99.90
782;DHT22;374;52.568;13.402;2022-08-19T19:53:12;23.20;99.90
782;DHT22;374;52.568;13.402;2022-08-19T19:55:40;23.10;99.90
782;DHT22;374;52.568;13.402;2022-08-19T19:58:05;23.10;99.90
782;DHT22;374;52.568;13.402;2022-08-19T20:00:31;23.10;99.90
782;DHT22;374;52.568;13.402;2022-08-19T20:02:57;23.10;99.90
782;DHT22;374;52.568;13.402;2022-08-19T20:05:23;23.10;99.90
782;DHT22;374;52.568;13.402;2022-08-19T20:07:51;23.10;99.90
782;DHT22;374;52.568;13.402;2022-08-19T20:10:36;23.10;99.90
782;DHT22;374;52.568;13.402;2022-08-19T20:13:03;23.10;99.90
782;DHT22;374;52.568;13.402;2022-08-19T20:15:29;23.10;99.90
782;DHT22;374;52.568;13.402;2022-08-19T20:17:56;23.10;99.90
782;DHT22;374;52.568;13.402;2022-08-19T20:20:22;23.10;99.90
782;DHT22;374;52.568;13.402;2022-08-19T20:22:48;23.10;99.90
782;DHT22;374;52.568;13.402;2022-08-19T20:25:17;23.00;99.90
782;DHT22;374;52.568;13.402;2022-08-19T20:27:43;23.00;99.90
782;DHT22;374;52.568;13.402;2022-08-19T20:30:17;23.00;99.90
782;DHT22;374;52.568;13.402;2022-08-19T20:32:43;23.00;99.90
782;DHT22;374;52.568;13.402;2022-08-19T20:35:12;23.00;99.90
782;DHT22;374;52.568;13.402;2022-08-19T20:37:38;23.00;99.90
782;DHT22;374;52.568;13.402;2022-08-19T20:40:05;23.00;99.90
782;DHT22;374;52.568;13.402;2022-08-19T20:42:31;23.00;99.90
782;DHT22;374;52.568;13.402;2022-08-19T20:44:57;23.00;99.90
782;DHT22;374;52.568;13.402;2022-08-19T20:47:23;22.90;99.90
782;DHT22;374;52.568;13.402;2022-08-19T20:49:49;23.00;99.90
782;DHT22;374;52.568;13.402;2022-08-19T20:52:16;22.90;99.90
782;DHT22;374;52.568;13.402;2022-08-19T20:54:41;22.90;99.90
782;DHT22;374;52.568;13.402;2022-08-19T20:57:07;22.90;99.90
782;DHT22;374;52.568;13.402;2022-08-19T20:59:33;22.90;99.90
782;DHT22;374;52.568;13.402;2022-08-19T21:01:58;22.90;99.90
782;DHT22;374;52.568;13.402;2022-08-19T21:04:24;22.90;99.90
782;DHT22;374;52.568;13.402;2022-08-19T21:06:50;22.80;99.90
782;DHT22;374;52.568;13.402;2022-08-19T21:09:16;22.80;99.90
782;DHT22;374;52.568;13.402;2022-08-19T21:11:42;22.80;99.90
782;DHT22;374;52.568;13.402;2022-08-19T21:14:08;22.80;99.90
782;DHT22;374;52.568;13.402;2022-08-19T21:16:33;22.80;99.90
782;DHT22;374;52.568;13.402;2022-08-19T21:18:59;22.80;99.90
782;DHT22;374;52.568;13.402;2022-08-19T21:21:25;22.70;99.90
782;DHT22;374;52.568;13.402;2022-08-19T21:23:51;22.70;99.90
782;DHT22;374;52.568;13.402;2022-08-19T21:26:17;22.70;99.90
782;DHT22;374;52.568;13.402;2022-08-19T21:28:45;22.70;99.90
782;DHT22;374;52.568;13.402;2022-08-19T21:31:11;22.70;99.90
782;DHT22;374;52.568;13.402;2022-08-19T21:33:38;22.70;99.90
782;DHT22;374;52.568;13.402;2022-08-19T21:36:05;22.70;99.90
782;DHT22;374;52.568;13.402;2022-08-19T21:38:31;22.70;99.90
782;DHT22;374;52.568;13.402;2022-08-19T21:40:57;22.70;99.90
782;DHT22;374;52.568;13.402;2022-08-19T21:43:23;22.70;99.90
782;DHT22;374;52.568;13.402;2022-08-19T21:45:48;22.70;99.90
782;DHT22;374;52.568;13.402;2022-08-19T21:48:16;22.70;99.90
782;DHT22;374;52.568;13.402;2022-08-19T21:50:42;22.60;99.90
782;DHT22;374;52.568;13.402;2022-08-19T21:53:09;22.70;99.90
782;DHT22;374;52.568;13.402;2022-08-19T21:55:34;22.60;99.90
782;DHT22;374;52.568;13.402;2022-08-19T21:58:00;22.60;99.90
782;DHT22;374;52.568;13.402;2022-08-19T22:00:27;22.60;99.90
782;DHT22;374;52.568;13.402;2022-08-19T22:02:55;22.60;99.90
782;DHT22;374;52.568;13.402;2022-08-19T22:05:21;22.60;99.90
782;DHT22;374;52.568;13.402;2022-08-19T22:07:48;22.60;99.90
782;DHT22;374;52.568;13.402;2022-08-19T22:10:14;22.60;99.90
782;DHT22;374;52.568;13.402;2022-08-19T22:12:40;22.60;99.90
782;DHT22;374;52.568;13.402;2022-08-19T22:15:08;22.60;99.90
782;DHT22;374;52.568;13.402;2022-08-19T22:17:36;22.60;99.90
782;DHT22;374;52.568;13.402;2022-08-19T22:20:04;22.60;99.90
782;DHT22;374;52.568;13.402;2022-08-19T22:22:33;22.60;99.90
782;DHT22;374;52.568;13.402;2022-08-19T22:25:10;22.60;99.90
782;DHT22;374;52.568;13.402;2022-08-19T22:27:36;22.50;99.90
782;DHT22;374;52.568;13.402;2022-08-19T22:30:05;22.60;99.90
782;DHT22;374;52.568;13.402;2022-08-19T22:32:31;22.60;99.90
782;DHT22;374;52.568;13.402;2022-08-19T22:34:58;22.60;99.90
782;DHT22;374;52.568;13.402;2022-08-19T22:37:24;22.50;99.90
782;DHT22;374;52.568;13.402;2022-08-19T22:39:49;22.50;99.90
782;DHT22;374;52.568;13.402;2022-08-19T22:42:19;22.50;99.90
782;DHT22;374;52.568;13.402;2022-08-19T22:44:45;22.50;99.90
782;DHT22;374;52.568;13.402;2022-08-19T22:47:11;22.50;99.90
782;DHT22;374;52.568;13.402;2022-08-19T22:49:36;22.50;99.90
782;DHT22;374;52.568;13.402;2022-08-19T22:52:02;22.50;99.90
782;DHT22;374;52.568;13.402;2022-08-19T22:54:48;22.50;99.90
782;DHT22;374;52.568;13.402;2022-08-19T22:57:15;22.50;99.90
782;DHT22;374;52.568;13.402;2022-08-19T22:59:43;22.50;99.90
782;DHT22;374;52.568;13.402;2022-08-19T23:02:09;22.50;99.90
782;DHT22;374;52.568;13.402;2022-08-19T23:04:35;22.50;99.90
782;DHT22;374;52.568;13.402;2022-08-19T23:07:00;22.50;99.90
782;DHT22;374;52.568;13.402;2022-08-19T23:09:26;22.50;99.90
782;DHT22;374;52.568;13.402;2022-08-19T23:11:51;22.50;99.90
782;DHT22;374;52.568;13.402;2022-08-19T23:14:18;22.40;99.90
782;DHT22;374;52.568;13.402;2022-08-19T23:16:44;22.40;99.90
782;DHT22;374;52.568;13.402;2022-08-19T23:19:10;22.40;99.90
782;DHT22;374;52.568;13.402;2022-08-19T23:21:38;22.40;99.90
782;DHT22;374;52.568;13.402;2022-08-19T23:24:04;22.40;99.90
782;DHT22;374;52.568;13.402;2022-08-19T23:26:30;22.40;99.90
782;DHT22;374;52.568;13.402;2022-08-19T23:28:55;22.40;99.90
782;DHT22;374;52.568;13.402;2022-08-19T23:31:39;22.40;99.90
782;DHT22;374;52.568;13.402;2022-08-19T23:34:05;22.40;99.90
782;DHT22;374;52.568;13.402;2022-08-19T23:36:30;22.40;99.90
782;DHT22;374;52.568;13.402;2022-08-19T23:38:56;22.40;99.90
782;DHT22;374;52.568;13.402;2022-08-19T23:41:23;22.40;99.90
782;DHT22;374;52.568;13.402;2022-08-19T23:43:52;22.40;99.90